Time;durP1;ratioP1;P1;durP2;ratioP2;P2;SDS_P1;SDS_P2;PMS_P1;PMS_P2;Temp;Humidity;BMP_temperature;BMP_pressure;BME280_temperature;BME280_humidity;BME280_pressure;Samples;Min_cycle;Max_cycle;Signal;HPM_P1;HPM_P2
2022/08/10 00:07:52;;;;;;;0.20;0.10;;;18.00;99.90;;;;;;20529992;28;20042;-39
2022/08/10 00:17:53;;;;;;;0.40;0.20;;;17.90;99.90;;;;;;20528280;28;20066;-39
2022/08/10 00:27:54;;;;;;;0.77;0.20;;;17.90;99.90;;;;;;20505611;28;20497;-39
2022/08/10 00:37:55;;;;;;;1.35;0.30;;;17.70;99.90;;;;;;20525641;28;20543;-39
2022/08/10 00:47:56;;;;;;;0.82;0.32;;;17.70;99.90;;;;;;20523761;28;20042;-39
2022/08/10 00:57:58;;;;;;;1.40;0.20;;;17.60;99.90;;;;;;20522602;28;20509;-39
2022/08/10 01:08:06;;;;;;;1.10;0.30;;;17.40;99.90;;;;;;20524896;28;20116;-39
2022/08/10 01:18:39;;;;;;;1.17;0.40;;;17.30;99.90;;;;;;20515510;28;20065;-39
2022/08/10 01:28:46;;;;;;;2.55;0.20;;;17.10;99.90;;;;;;20449658;28;20378;-39
2022/08/10 01:38:50;;;;;;;0.93;0.20;;;17.00;99.90;;;;;;20520463;28;20313;-39
2022/08/10 01:48:54;;;;;;;1.15;0.90;;;16.90;99.90;;;;;;20529732;28;20163;-39
2022/08/10 01:58:58;;;;;;;1.52;0.40;;;16.80;99.90;;;;;;20515431;28;20241;-39
2022/08/10 02:09:01;;;;;;;1.40;0.50;;;16.80;99.90;;;;;;20519972;28;20208;-39
2022/08/10 02:19:03;;;;;;;1.27;0.22;;;16.80;99.90;;;;;;20522655;28;20092;-39
2022/08/10 02:29:04;;;;;;;1.00;0.30;;;16.70;99.90;;;;;;20523062;28;22225;-39
2022/08/10 02:39:07;;;;;;;0.30;0.10;;;16.70;99.90;;;;;;20540231;28;20588;-39
2022/08/10 02:49:15;;;;;;;0.98;0.30;;;16.60;99.90;;;;;;20546516;28;20459;-39
2022/08/10 02:59:26;;;;;;;0.98;0.47;;;16.50;99.90;;;;;;20529860;28;20038;-39
2022/08/10 03:09:30;;;;;;;0.63;0.20;;;16.40;99.90;;;;;;20527534;28;20687;-39
2022/08/10 03:19:33;;;;;;;0.73;0.30;;;16.30;99.90;;;;;;20521442;28;20117;-39
2022/08/10 03:29:34;;;;;;;1.27;0.45;;;16.20;99.90;;;;;;20531643;28;20105;-39
2022/08/10 03:39:35;;;;;;;1.33;0.68;;;16.20;99.90;;;;;;20508947;28;20136;-39
2022/08/10 03:49:38;;;;;;;1.33;0.38;;;16.20;99.90;;;;;;20528256;28;20785;-39
2022/08/10 03:59:39;;;;;;;0.95;0.30;;;16.20;99.90;;;;;;20535170;28;20935;-39
2022/08/10 04:09:40;;;;;;;1.10;0.50;;;16.20;99.90;;;;;;20518535;28;22738;-39
2022/08/10 04:19:46;;;;;;;1.67;0.50;;;16.10;99.90;;;;;;20529980;28;20393;-39
2022/08/10 04:29:50;;;;;;;2.72;0.60;;;16.00;99.90;;;;;;20526668;28;20050;-39
2022/08/10 04:39:51;;;;;;;1.35;0.85;;;15.90;99.90;;;;;;20526178;28;20601;-39
2022/08/10 04:49:52;;;;;;;1.95;0.88;;;16.10;99.90;;;;;;20529766;28;20168;-39
2022/08/10 04:59:53;;;;;;;1.55;0.73;;;16.10;99.90;;;;;;20525712;28;20067;-39
2022/08/10 05:09:55;;;;;;;2.53;0.90;;;16.00;99.90;;;;;;20529121;28;20140;-39
2022/08/10 05:19:56;;;;;;;3.83;1.23;;;16.00;99.90;;;;;;20522099;28;21412;-39
2022/08/10 05:29:57;;;;;;;1.83;1.15;;;16.20;99.90;;;;;;20522984;28;20041;-39
2022/08/10 05:40:00;;;;;;;2.35;0.85;;;16.50;99.90;;;;;;20524020;28;20073;-39
2022/08/10 05:50:01;;;;;;;2.67;0.95;;;16.80;99.90;;;;;;20511830;28;20173;-39
2022/08/10 06:00:07;;;;;;;1.90;0.77;;;17.30;99.90;;;;;;20522807;28;20058;-39
2022/08/10 06:10:13;;;;;;;1.73;0.95;;;17.70;99.90;;;;;;20542385;28;21501;-39
2022/08/10 06:20:14;;;;;;;2.88;0.90;;;18.20;99.90;;;;;;20530716;28;20082;-39
2022/08/10 06:30:15;;;;;;;1.77;0.60;;;18.50;99.90;;;;;;20537953;28;20105;-39
2022/08/10 06:40:17;;;;;;;2.97;1.10;;;18.70;99.90;;;;;;20567816;28;20482;-39
2022/08/10 06:50:38;;;;;;;3.25;1.15;;;18.80;99.90;;;;;;20547101;28;20042;-39
2022/08/10 07:00:42;;;;;;;2.70;0.73;;;18.90;99.90;;;;;;20524672;28;21880;-39
2022/08/10 07:10:45;;;;;;;4.82;1.13;;;19.10;99.90;;;;;;20538307;28;20067;-39
2022/08/10 07:20:47;;;;;;;2.05;0.80;;;19.50;99.90;;;;;;20530463;28;20035;-39
2022/08/10 07:30:52;;;;;;;1.27;0.47;;;19.60;99.90;;;;;;20537016;28;20114;-39
2022/08/10 07:40:53;;;;;;;1.52;0.70;;;19.80;99.90;;;;;;20532054;28;20114;-39
2022/08/10 07:50:58;;;;;;;1.92;0.60;;;20.00;99.90;;;;;;20538875;28;20407;-40
2022/08/10 08:01:00;;;;;;;1.17;0.50;;;20.20;99.90;;;;;;20553046;28;20034;-39
2022/08/10 08:11:02;;;;;;;2.22;0.45;;;20.40;99.90;;;;;;20532758;28;20109;-39
2022/08/10 08:21:04;;;;;;;0.85;0.38;;;20.60;99.90;;;;;;20531452;28;20042;-39
2022/08/10 08:31:05;;;;;;;0.57;0.22;;;20.90;99.90;;;;;;20531791;28;20938;-39
2022/08/10 08:41:25;;;;;;;0.88;0.40;;;21.40;99.90;;;;;;20531011;28;20070;-39
2022/08/10 08:51:39;;;;;;;2.08;0.60;;;21.80;99.90;;;;;;20518574;28;20939;-40
2022/08/10 09:01:52;;;;;;;0.93;0.40;;;22.20;99.90;;;;;;20515505;28;20926;-41
2022/08/10 09:12:18;;;;;;;1.02;0.50;;;22.60;99.90;;;;;;20520784;28;20462;-40
2022/08/10 09:22:41;;;;;;;0.88;0.50;;;22.90;99.90;;;;;;20509846;28;21961;-41
2022/08/10 09:32:47;;;;;;;1.10;0.30;;;23.30;99.90;;;;;;20520993;28;20851;-41
2022/08/10 09:43:06;;;;;;;1.02;0.55;;;23.70;99.90;;;;;;20526962;28;20534;-41
2022/08/10 09:53:30;;;;;;;0.73;0.35;;;24.30;99.90;;;;;;20533679;28;21336;-41
2022/08/10 10:04:13;;;;;;;0.70;0.30;;;24.60;99.90;;;;;;20534563;28;20251;-41
2022/08/10 10:15:19;;;;;;;0.65;0.25;;;25.50;99.90;;;;;;20534291;28;21913;-41
2022/08/10 10:25:15;;;;;;;2.30;0.60;;;26.00;99.90;;;;;;20554727;28;20655;-41
2022/08/10 10:35:22;;;;;;;1.50;0.60;;;26.70;99.90;;;;;;20542385;28;20759;-41
2022/08/10 10:45:34;;;;;;;1.58;0.25;;;27.00;99.90;;;;;;20555762;28;20892;-41
2022/08/10 10:55:52;;;;;;;0.68;0.35;;;27.60;98.60;;;;;;20547051;28;20058;-41
2022/08/10 11:06:18;;;;;;;0.85;0.20;;;27.70;97.80;;;;;;20544338;28;20733;-41
2022/08/10 11:16:34;;;;;;;0.75;0.35;;;28.10;98.60;;;;;;20545004;28;20655;-41
2022/08/10 11:26:56;;;;;;;0.73;0.30;;;28.80;95.50;;;;;;20533753;28;20648;-41
2022/08/10 11:37:18;;;;;;;1.27;0.47;;;29.20;96.00;;;;;;20538192;28;20506;-41
2022/08/10 11:47:21;;;;;;;0.55;0.30;;;29.30;95.30;;;;;;20527706;28;20343;-41
2022/08/10 11:57:28;;;;;;;0.75;0.40;;;29.30;96.00;;;;;;20523898;28;20321;-41
2022/08/10 12:07:31;;;;;;;1.63;0.90;;;29.70;94.20;;;;;;20525591;28;20507;-41
2022/08/10 12:18:00;;;;;;;5.20;0.38;;;29.90;95.00;;;;;;20528326;28;20544;-41
2022/08/10 12:28:09;;;;;;;0.40;0.10;;;30.20;95.40;;;;;;20519494;28;20196;-41
2022/08/10 12:38:29;;;;;;;0.80;0.30;;;30.50;93.40;;;;;;20524073;28;20394;-41
2022/08/10 12:48:37;;;;;;;0.68;0.25;;;30.80;93.10;;;;;;20530787;28;22239;-41
2022/08/10 12:58:40;;;;;;;1.25;0.40;;;30.90;91.50;;;;;;20511755;28;20889;-41
2022/08/10 13:19:06;;;;;;;1.38;0.50;;;31.70;90.10;;;;;;20511790;28;20860;-41
2022/08/10 13:29:16;;;;;;;0.80;0.40;;;31.80;93.40;;;;;;20516958;28;20987;-41
2022/08/10 13:39:22;;;;;;;0.88;0.30;;;31.50;94.10;;;;;;20519149;28;20047;-41
2022/08/10 13:49:25;;;;;;;0.95;0.40;;;31.00;94.80;;;;;;20516937;28;20798;-41
2022/08/10 13:59:28;;;;;;;0.77;0.32;;;31.30;95.10;;;;;;20533044;28;20077;-41
2022/08/10 14:09:31;;;;;;;2.15;0.40;;;30.80;95.70;;;;;;20522552;28;20121;-41
2022/08/10 14:19:37;;;;;;;0.40;0.22;;;30.30;96.40;;;;;;20516379;28;20074;-41
2022/08/10 14:29:44;;;;;;;0.70;0.23;;;29.80;96.90;;;;;;20522785;28;20890;-41
2022/08/10 14:39:53;;;;;;;0.93;0.40;;;29.60;97.50;;;;;;20516346;28;20104;-41
2022/08/10 14:49:55;;;;;;;0.88;0.38;;;29.40;98.00;;;;;;20523947;28;20089;-41
2022/08/10 14:59:57;;;;;;;1.52;0.60;;;29.00;98.20;;;;;;20528108;28;20278;-41
2022/08/10 15:09:59;;;;;;;0.47;0.20;;;29.00;98.70;;;;;;20544405;28;20047;-41
2022/08/10 15:20:05;;;;;;;1.13;0.43;;;28.70;97.90;;;;;;20540646;28;20141;-41
2022/08/10 15:30:09;;;;;;;0.82;0.50;;;28.60;98.00;;;;;;20538257;28;21734;-41
2022/08/10 15:40:15;;;;;;;1.95;0.40;;;28.30;98.90;;;;;;20537320;28;20478;-41
2022/08/10 15:50:37;;;;;;;1.20;0.43;;;28.30;99.00;;;;;;20492468;28;20147;-41
2022/08/10 16:00:48;;;;;;;0.60;0.20;;;28.20;99.10;;;;;;20484842;28;20877;-40
2022/08/10 16:11:04;;;;;;;1.00;0.50;;;28.00;98.80;;;;;;20534398;28;20498;-41
2022/08/10 16:21:13;;;;;;;0.57;0.30;;;27.90;98.90;;;;;;20537087;28;20685;-41
2022/08/10 16:31:20;;;;;;;1.23;0.40;;;27.60;99.80;;;;;;20521604;28;20074;-40
2022/08/10 16:41:27;;;;;;;1.25;0.40;;;27.40;99.80;;;;;;20508383;28;21853;-40
2022/08/10 16:51:29;;;;;;;1.40;0.30;;;27.10;99.90;;;;;;20488406;28;20065;-41
2022/08/10 17:01:36;;;;;;;0.77;0.30;;;26.90;99.90;;;;;;20496439;28;20683;-40
2022/08/10 17:11:39;;;;;;;4.20;1.27;;;26.70;99.90;;;;;;20512269;28;20135;-41
2022/08/10 17:21:50;;;;;;;0.50;0.20;;;26.40;99.90;;;;;;20503802;28;20311;-41
2022/08/10 17:31:53;;;;;;;0.75;0.30;;;26.20;99.90;;;;;;20507478;28;20059;-40
2022/08/10 17:41:55;;;;;;;1.30;0.22;;;26.00;99.90;;;;;;20505264;28;20034;-40
2022/08/10 17:51:58;;;;;;;1.00;0.47;;;25.90;99.90;;;;;;20507180;28;20034;-41
2022/08/10 18:02:13;;;;;;;0.85;0.30;;;25.40;99.90;;;;;;20509851;28;20109;-40
2022/08/10 18:12:19;;;;;;;1.48;0.57;;;25.10;99.90;;;;;;20533648;28;20429;-41
2022/08/10 18:22:22;;;;;;;0.60;0.33;;;25.00;99.90;;;;;;20509463;28;21533;-40
2022/08/10 18:32:30;;;;;;;2.50;0.93;;;24.70;99.90;;;;;;20521789;28;20331;-41
2022/08/10 18:42:37;;;;;;;0.90;0.57;;;24.60;99.90;;;;;;20528800;28;20073;-40
2022/08/10 18:52:42;;;;;;;0.60;0.20;;;24.50;99.90;;;;;;20538180;28;20050;-40
2022/08/10 19:03:01;;;;;;;0.90;0.60;;;24.30;99.90;;;;;;20539154;28;20042;-41
2022/08/10 19:13:20;;;;;;;0.60;0.25;;;24.20;99.90;;;;;;20537137;28;20367;-40
2022/08/10 19:23:34;;;;;;;1.27;0.28;;;24.00;99.90;;;;;;20511264;28;20787;-40
2022/08/10 19:33:54;;;;;;;0.57;0.30;;;23.80;99.90;;;;;;20505638;28;20074;-41
2022/08/10 19:44:20;;;;;;;0.50;0.35;;;23.60;99.90;;;;;;20520450;28;21552;-40
2022/08/10 19:54:25;;;;;;;0.57;0.30;;;23.40;99.90;;;;;;20513047;28;20920;-40
2022/08/10 20:04:34;;;;;;;0.60;0.30;;;23.20;99.90;;;;;;20506888;28;20146;-41
2022/08/10 20:14:47;;;;;;;0.88;0.30;;;23.00;99.90;;;;;;20500463;28;20105;-40
2022/08/10 20:25:07;;;;;;;0.80;0.25;;;22.80;99.90;;;;;;20481020;28;20277;-39
2022/08/10 20:35:25;;;;;;;1.00;0.50;;;22.70;99.90;;;;;;20481676;28;20065;-40
2022/08/10 20:45:32;;;;;;;1.10;0.43;;;22.50;99.90;;;;;;20484625;28;20760;-39
2022/08/10 20:55:53;;;;;;;0.65;0.40;;;22.40;99.90;;;;;;20483730;28;20114;-40
2022/08/10 21:06:01;;;;;;;2.97;0.75;;;22.30;99.90;;;;;;20486763;28;20332;-40
2022/08/10 21:16:13;;;;;;;1.25;0.50;;;22.10;99.90;;;;;;20463734;28;20055;-40
2022/08/10 23:00:18;;;;;;;1.00;0.47;;;20.40;99.90;;;;;;20515608;28;20549;-40
2022/08/10 23:10:23;;;;;;;1.33;0.35;;;20.20;99.90;;;;;;20513705;28;20109;-40
2022/08/10 23:20:26;;;;;;;1.25;0.57;;;20.10;99.90;;;;;;20497131;28;20861;-40
2022/08/10 23:30:35;;;;;;;1.80;0.70;;;20.10;99.90;;;;;;20517565;28;20082;-40
2022/08/10 23:40:42;;;;;;;0.88;0.35;;;20.10;99.90;;;;;;20514017;28;20664;-40
2022/08/10 23:50:48;;;;;;;1.63;0.60;;;20.10;99.90;;;;;;20521485;28;21629;-40
